.
WxDataArchive / Data Records for 2007-09-21
2007-09-20 September 2007 2007-09-22

Data Records for Friday, 21 September 2007

Time	Temp	Chill	HIndex	Humid	Dewpt	 Wind 	HiWind	WindDir	Rain 	Barom 
-----	----	-----	------	-----	-----	------	------	-------	-----	----- 
00:00	64.5	64.5	64.5	87	60.5	0	1	90	0.00	29.999 
00:05	64.3	64.3	64.3	87	60.3	0	1	90	0.00	29.997 
00:10	64.3	64.3	64.3	87	60.3	0	1	90	0.00	30.002 
00:15	64.2	64.2	64.2	88	60.6	0	1	90	0.00	30.000 
00:20	64.0	64.0	64.0	88	60.4	0	1	90	0.00	30.001 
00:25	64.0	64.0	64.0	88	60.4	0	1	90	0.00	30.000 
00:30	63.9	63.9	63.9	89	60.6	0	1	90	0.00	29.998 
00:35	63.9	63.9	63.9	89	60.6	0	1	90	0.00	29.993 
00:40	63.9	63.9	63.9	89	60.6	0	1	90	0.00	29.992 
00:45	63.9	63.9	63.9	89	60.6	0	2	90	0.00	29.993 
00:50	63.9	63.9	63.9	89	60.6	0	1	90	0.00	29.992 
00:55	63.7	63.7	63.7	89	60.4	0	1	90	0.00	29.991 
01:00	63.7	63.7	63.7	89	60.4	0	0	---	0.00	29.991 
01:05	63.5	63.5	63.5	90	60.5	0	1	90	0.00	29.988 
01:10	63.5	63.5	63.5	90	60.5	0	1	90	0.00	29.988 
01:15	63.5	63.5	63.5	90	60.5	0	1	90	0.00	29.988 
01:20	63.4	63.4	63.4	91	60.7	0	0	---	0.00	29.990 
01:25	63.2	63.2	63.2	90	60.2	0	0	---	0.00	29.989 
01:30	63.1	63.1	63.1	91	60.4	0	0	---	0.00	29.988 
01:35	62.9	62.9	62.9	91	60.2	0	0	---	0.00	29.989 
01:40	62.7	62.7	62.7	91	60.0	0	0	---	0.00	29.989 
01:45	62.6	62.6	62.6	92	60.2	0	0	---	0.00	29.989 
01:50	62.4	62.4	62.4	92	60.0	0	0	---	0.00	29.989 
01:55	62.3	62.3	62.3	92	59.9	0	0	---	0.00	29.989 
02:00	62.1	62.1	62.1	92	59.7	0	0	---	0.00	29.988 
02:05	62.0	62.0	62.0	93	59.9	0	0	---	0.00	29.988 
02:10	61.8	61.8	61.8	93	59.8	0	0	---	0.00	29.988 
02:15	61.8	61.8	61.8	93	59.8	0	0	---	0.00	29.987 
02:20	61.6	61.6	61.6	94	59.9	0	0	---	0.00	29.987 
02:25	61.5	61.5	61.5	94	59.8	0	0	---	0.00	29.988 
02:30	61.3	61.3	61.3	94	59.6	0	0	---	0.00	29.988 
02:35	61.3	61.3	61.3	94	59.6	0	0	---	0.00	29.988 
02:40	61.2	61.2	61.2	94	59.5	0	0	---	0.00	29.985 
02:45	61.0	61.0	61.0	94	59.3	0	0	---	0.00	29.985 
02:50	60.9	60.9	60.9	94	59.2	0	0	---	0.00	29.985 
02:55	60.7	60.7	60.7	94	59.0	0	0	---	0.00	29.983 
03:00	60.7	60.7	60.7	95	59.3	0	0	---	0.00	29.982 
03:05	60.7	60.7	60.7	95	59.3	0	0	---	0.00	29.983 
03:10	60.7	60.7	60.7	95	59.3	0	0	---	0.00	29.984 
03:15	60.7	60.7	60.7	95	59.3	0	0	---	0.00	29.982 
03:20	60.9	60.9	60.9	95	59.5	0	0	---	0.00	29.982 
03:25	60.9	60.9	60.9	96	59.7	0	0	---	0.00	29.982 
03:30	60.7	60.7	60.7	96	59.6	0	0	---	0.00	29.982 
03:35	60.5	60.5	60.5	96	59.4	0	0	---	0.00	29.981 
03:40	60.5	60.5	60.5	96	59.4	0	0	---	0.00	29.983 
03:45	60.5	60.5	60.5	96	59.4	0	0	---	0.00	29.984 
03:50	60.5	60.5	60.5	96	59.4	0	1	90	0.00	29.981 
03:55	60.7	60.7	60.7	96	59.6	0	1	90	0.00	29.980 
04:00	60.9	60.9	60.9	96	59.7	0	1	90	0.00	29.982 
04:05	60.9	60.9	60.9	96	59.7	0	1	90	0.00	29.982 
04:10	60.7	60.7	60.7	96	59.6	0	0	---	0.00	29.980 
04:15	60.5	60.5	60.5	96	59.4	0	0	---	0.00	29.982 
04:20	60.5	60.5	60.5	96	59.4	0	1	90	0.00	29.982 
04:25	60.5	60.5	60.5	96	59.4	0	0	---	0.00	29.983 
04:30	60.4	60.4	60.4	96	59.3	0	0	---	0.00	29.988 
04:35	60.4	60.4	60.4	96	59.3	0	0	---	0.00	29.988 
04:40	60.2	60.2	60.2	96	59.1	0	0	---	0.00	29.989 
04:45	60.1	60.1	60.1	96	59.0	0	0	---	0.00	29.988 
04:50	59.8	59.8	59.8	96	58.7	0	0	---	0.00	29.989 
04:55	59.8	59.8	59.8	96	58.7	0	1	90	0.00	29.987 
05:00	59.8	59.8	59.8	96	58.7	0	1	90	0.00	29.987 
05:05	59.8	59.8	59.8	96	58.7	0	0	---	0.00	29.989 
05:10	59.8	59.8	59.8	96	58.7	0	0	---	0.00	29.987 
05:15	59.6	59.6	59.6	96	58.5	0	0	---	0.00	29.989 
05:20	59.5	59.5	59.5	96	58.4	0	0	---	0.00	29.990 
05:25	59.3	59.3	59.3	96	58.2	0	0	---	0.00	29.989 
05:30	59.3	59.3	59.3	96	58.2	0	0	---	0.00	29.994 
05:35	59.3	59.3	59.3	96	58.2	0	0	---	0.00	29.994 
05:40	59.3	59.3	59.3	96	58.2	0	0	---	0.00	29.994 
05:45	59.5	59.5	59.5	96	58.4	0	0	---	0.00	29.994 
05:50	59.5	59.5	59.5	97	58.6	0	0	---	0.00	29.994 
05:55	59.5	59.5	59.5	97	58.6	0	0	---	0.00	29.995 
06:00	59.5	59.5	59.5	97	58.6	0	0	---	0.00	29.995 
06:05	59.5	59.5	59.5	97	58.6	0	0	---	0.00	29.998 
06:10	59.5	59.5	59.5	97	58.6	0	0	---	0.00	29.999 
06:15	59.5	59.5	59.5	97	58.6	0	0	---	0.00	29.998 
06:20	59.6	59.6	59.6	97	58.7	0	0	---	0.00	29.998 
06:25	60.1	60.1	60.1	97	59.2	0	0	---	0.00	30.000 
06:30	60.4	60.4	60.4	97	59.5	0	1	90	0.00	29.998 
06:35	60.4	60.4	60.4	97	59.5	0	1	90	0.00	30.000 
06:40	60.5	60.5	60.5	97	59.6	0	1	90	0.00	30.000 
06:45	60.4	60.4	60.4	97	59.5	0	1	90	0.00	29.999 
06:50	60.4	60.4	60.4	97	59.5	0	1	90	0.00	29.999 
06:55	60.2	60.2	60.2	97	59.3	0	1	90	0.00	30.001 
07:00	60.2	60.2	60.2	97	59.3	0	1	90	0.00	30.001 
07:05	60.1	60.1	60.1	97	59.2	0	1	90	0.00	30.001 
07:10	60.1	60.1	60.1	97	59.2	0	1	90	0.00	30.002 
07:15	60.1	60.1	60.1	97	59.2	0	2	90	0.00	30.003 
07:20	60.1	60.1	60.1	97	59.2	0	1	90	0.00	30.006 
07:25	60.1	60.1	60.1	97	59.2	0	1	90	0.00	30.009 
07:30	60.1	60.1	60.1	97	59.2	0	1	90	0.00	30.007 
07:35	60.2	60.2	60.2	97	59.3	0	1	90	0.00	30.010 
07:40	60.5	60.5	60.5	98	59.9	0	1	90	0.00	30.008 
07:45	60.7	60.7	60.7	98	60.1	0	1	90	0.00	30.011 
07:50	61.0	61.0	61.0	98	60.4	0	1	90	0.00	30.013 
07:55	61.2	61.2	61.2	98	60.6	0	2	90	0.00	30.013 
08:00	61.3	61.3	61.3	98	60.7	0	1	90	0.00	30.014 
08:05	61.6	61.6	61.6	98	61.0	0	1	90	0.00	30.014 
08:10	62.0	62.0	62.0	98	61.4	0	1	90	0.00	30.013 
08:15	62.1	62.1	62.1	98	61.5	0	1	90	0.00	30.013 
08:20	62.0	62.0	62.0	98	61.4	0	2	90	0.00	30.013 
08:25	62.1	62.1	62.1	98	61.5	0	2	90	0.00	30.013 
08:30	62.6	62.6	62.6	98	62.0	0	2	90	0.00	30.012 
08:35	63.1	63.1	63.1	98	62.5	0	1	90	0.00	30.013 
08:40	63.2	63.2	63.2	98	62.6	0	2	90	0.00	30.013 
08:45	63.4	63.4	63.4	98	62.8	0	1	90	0.00	30.013 
08:50	63.9	63.9	63.9	98	63.3	0	1	90	0.00	30.011 
08:55	64.5	64.5	64.5	97	63.6	0	1	90	0.00	30.008 
09:00	64.8	64.8	64.8	97	63.9	0	2	90	0.00	30.009 
09:05	65.3	65.3	65.3	94	63.5	0	2	90	0.00	30.010 
09:10	66.0	66.0	66.0	91	63.3	0	2	90	0.00	30.007 
09:15	66.9	66.9	66.9	88	63.2	0	3	90	0.00	30.005 
09:20	67.9	67.9	67.9	85	63.2	0	1	90	0.00	30.001 
09:25	68.8	68.8	68.8	82	63.1	1	3	90	0.00	30.001 
09:30	70.1	70.1	70.1	79	63.3	0	1	90	0.00	29.997 
09:35	71.1	71.1	71.1	76	63.1	0	2	90	0.00	29.995 
09:40	72.3	72.3	72.3	74	63.5	0	2	90	0.00	29.993 
09:45	73.3	73.3	73.3	70	62.9	1	3	90	0.00	29.992 
09:50	74.2	74.2	74.2	71	64.2	0	2	90	0.00	29.991 
09:55	74.9	74.9	74.9	69	64.0	0	2	90	0.00	29.989 
10:00	75.8	75.8	77.7	65	63.2	0	2	90	0.00	29.988 
10:05	76.5	76.5	78.3	63	62.9	1	2	90	0.00	29.986 
10:10	77.2	77.2	79.0	63	63.6	1	3	90	0.00	29.982 
10:15	77.6	77.6	79.2	58	61.6	1	4	90	0.00	29.981 
10:20	78.3	78.3	79.8	57	61.8	1	3	90	0.00	29.977 
10:25	79.0	79.0	80.5	58	62.9	1	3	112	0.00	29.978 
10:30	79.6	79.6	80.8	54	61.5	1	3	45	0.00	29.973 
10:35	79.9	79.9	81.0	53	61.2	1	4	248	0.00	29.974 
10:40	80.3	80.3	81.2	51	60.5	1	5	68	0.00	29.973 
10:45	80.5	80.5	81.5	52	61.2	1	3	270	0.00	29.972 
10:50	80.9	80.9	81.5	49	59.9	1	4	248	0.00	29.973 
10:55	81.2	81.2	81.8	49	60.2	1	4	338	0.00	29.972 
11:00	81.6	81.6	82.1	48	60.0	1	4	90	0.00	29.969 
11:05	82.0	82.0	82.2	46	59.1	1	5	248	0.00	29.970 
11:10	82.4	82.4	82.6	46	59.5	2	4	112	0.00	29.965 
11:15	83.2	83.2	83.8	48	61.4	1	2	112	0.00	29.961 
11:20	83.6	83.6	83.5	44	59.3	1	5	315	0.00	29.959 
11:25	83.8	83.8	83.6	43	58.9	1	4	248	0.00	29.958 
11:30	84.0	84.0	83.6	42	58.4	1	5	248	0.00	29.957 
11:35	84.3	84.3	83.9	42	58.7	1	3	0	0.00	29.958 
11:40	84.5	84.5	83.8	40	57.5	1	5	248	0.00	29.956 
11:45	84.5	84.5	83.8	40	57.5	2	5	248	0.00	29.957 
11:50	84.7	84.7	84.2	41	58.4	1	4	0	0.00	29.955 
11:55	84.9	84.9	84.4	41	58.5	1	5	270	0.00	29.955 
12:00	84.9	84.9	84.4	41	58.5	2	5	270	0.00	29.955 
12:05	85.1	85.1	84.3	39	57.3	1	5	248	0.00	29.956 
12:10	85.3	85.3	84.3	38	56.8	2	6	315	0.00	29.956 
12:15	85.3	85.3	84.5	39	57.5	2	6	270	0.00	29.955 
12:20	85.5	85.5	84.9	40	58.4	1	5	90	0.00	29.951 
12:25	85.9	85.9	85.1	39	58.0	1	2	202	0.00	29.947 
12:30	86.1	86.1	84.8	36	56.0	2	6	248	0.00	29.947 
12:35	85.9	85.9	84.7	37	56.6	2	5	270	0.00	29.943 
12:40	86.1	86.1	85.2	38	57.5	1	4	270	0.00	29.939 
12:45	86.5	86.5	85.6	38	57.8	1	3	68	0.00	29.939 
12:50	86.7	86.7	85.4	36	56.5	2	5	270	0.00	29.938 
12:55	86.3	86.3	85.0	36	56.2	2	6	270	0.00	29.936 
13:00	86.5	86.5	85.2	36	56.3	1	4	270	0.00	29.930 
13:05	86.5	86.5	85.4	37	57.1	1	3	270	0.00	29.928 
13:10	86.7	86.7	85.4	36	56.5	2	7	248	0.00	29.928 
13:15	87.0	87.0	85.8	36	56.8	1	5	248	0.00	29.926 
13:20	87.0	87.0	86.0	37	57.5	1	4	45	0.00	29.924 
13:25	87.4	87.4	86.0	35	56.3	1	3	292	0.00	29.924 
13:30	87.4	87.4	86.4	37	57.9	1	6	90	0.00	29.923 
13:35	87.4	87.4	85.8	34	55.5	2	4	248	0.00	29.922 
13:40	87.6	87.6	86.0	34	55.7	1	4	270	0.00	29.920 
13:45	87.4	87.4	86.0	35	56.3	1	4	248	0.00	29.911 
13:50	87.4	87.4	86.0	35	56.3	1	3	248	0.00	29.909 
13:55	87.4	87.4	86.7	38	58.6	1	3	270	0.00	29.907 
14:00	87.8	87.8	86.5	35	56.7	2	4	270	0.00	29.903 
14:05	87.8	87.8	86.7	36	57.5	1	7	248	0.00	29.901 
14:10	88.0	88.0	86.5	34	56.1	1	5	338	0.00	29.897 
14:15	87.8	87.8	86.5	35	56.7	1	4	270	0.00	29.896 
14:20	87.6	87.6	86.4	36	57.3	1	4	90	0.00	29.897 
14:25	87.6	87.6	86.2	35	56.5	2	4	112	0.00	29.896 
14:30	87.2	87.2	86.0	36	57.0	3	9	90	0.00	29.895 
14:35	87.0	87.0	85.6	35	56.0	2	5	90	0.00	29.892 
14:40	87.2	87.2	86.0	36	57.0	1	4	90	0.00	29.891 
14:45	87.2	87.2	85.8	35	56.2	2	6	112	0.00	29.891 
14:50	87.0	87.0	86.0	37	57.5	2	5	90	0.00	29.889 
14:55	87.2	87.2	85.8	35	56.2	1	4	270	0.00	29.889 
15:00	87.4	87.4	86.4	37	57.9	1	4	90	0.00	29.889 
15:05	87.2	87.2	86.2	37	57.7	1	4	112	0.00	29.888 
15:10	87.2	87.2	86.0	36	57.0	1	4	90	0.00	29.886 
15:15	87.0	87.0	86.0	37	57.5	0	3	248	0.00	29.884 
15:20	87.0	87.0	86.4	39	59.0	1	5	270	0.00	29.882 
15:25	86.5	86.5	85.6	38	57.8	2	4	90	0.00	29.881 
15:30	86.1	86.1	85.6	40	58.9	1	5	90	0.00	29.879 
15:35	85.9	85.9	85.1	39	58.0	2	5	90	0.00	29.877 
15:40	85.9	85.9	85.1	39	58.0	1	3	68	0.00	29.876 
15:45	86.1	86.1	85.4	39	58.2	1	3	112	0.00	29.872 
15:50	85.9	85.9	84.7	37	56.6	2	5	90	0.00	29.868 
15:55	85.9	85.9	85.1	39	58.0	1	3	90	0.00	29.867 
16:00	85.9	85.9	85.3	40	58.7	0	2	90	0.00	29.866 
16:05	85.9	85.9	85.1	39	58.0	1	4	90	0.00	29.865 
16:10	85.7	85.7	84.9	39	57.9	1	4	90	0.00	29.864 
16:15	85.5	85.5	84.7	39	57.7	1	4	45	0.00	29.865 
16:20	85.5	85.5	85.1	41	59.1	0	3	292	0.00	29.863 
16:25	85.3	85.3	85.0	42	59.6	0	2	270	0.00	29.864 
16:30	85.1	85.1	84.3	39	57.3	1	3	270	0.00	29.864 
16:35	85.1	85.1	84.4	40	58.0	1	4	90	0.00	29.863 
16:40	85.1	85.1	84.4	40	58.0	0	2	90	0.00	29.862 
16:45	85.1	85.1	84.4	40	58.0	1	4	90	0.00	29.859 
16:50	84.9	84.9	84.4	41	58.5	1	4	90	0.00	29.860 
16:55	84.7	84.7	84.2	41	58.4	1	4	112	0.00	29.857 
17:00	84.7	84.7	84.2	41	58.4	0	3	112	0.00	29.855 
17:05	84.5	84.5	84.0	41	58.2	1	4	112	0.00	29.855 
17:10	84.5	84.5	84.1	42	58.9	0	1	68	0.00	29.856 
17:15	84.3	84.3	83.9	42	58.7	0	2	68	0.00	29.854 
17:20	84.1	84.1	83.7	42	58.5	0	3	68	0.00	29.853 
17:25	84.0	84.0	83.6	42	58.4	0	2	68	0.00	29.852 
17:30	83.8	83.8	83.4	42	58.2	0	2	68	0.00	29.850 
17:35	83.6	83.6	83.2	42	58.0	0	2	68	0.00	29.849 
17:40	83.6	83.6	83.0	41	57.4	1	2	68	0.00	29.848 
17:45	83.4	83.4	82.9	41	57.2	0	3	90	0.00	29.848 
17:50	83.2	83.2	82.8	42	57.7	0	2	90	0.00	29.846 
17:55	83.0	83.0	82.6	42	57.5	0	3	90	0.00	29.843 
18:00	82.8	82.8	82.6	43	58.0	0	1	90	0.00	29.843 
18:05	82.4	82.4	82.2	43	57.6	0	1	90	0.00	29.843 
18:10	82.2	82.2	82.0	43	57.4	0	2	90	0.00	29.839 
18:15	81.8	81.8	81.6	43	57.1	0	2	90	0.00	29.837 
18:20	81.6	81.6	81.6	44	57.5	0	2	112	0.00	29.836 
18:25	81.2	81.2	81.3	45	57.8	0	0	---	0.00	29.836 
18:30	80.9	80.9	81.1	45	57.5	0	0	---	0.00	29.836 
18:35	80.3	80.3	80.7	46	57.6	0	2	112	0.00	29.834 
18:40	79.9	79.9	80.4	47	57.8	0	0	---	0.00	29.833 
18:45	79.4	79.4	80.1	48	58.0	0	1	112	0.00	29.834 
18:50	78.8	78.8	79.7	48	57.4	0	0	---	0.00	29.832 
18:55	78.3	78.3	79.4	50	58.1	0	0	---	0.00	29.833 
19:00	77.7	77.7	79.1	51	58.1	0	0	---	0.00	29.833 
19:05	77.2	77.2	78.7	51	57.6	0	1	112	0.00	29.830 
19:10	76.8	76.8	78.5	52	57.8	0	1	112	0.00	29.830 
19:15	76.5	76.5	78.4	53	58.1	0	0	---	0.00	29.831 
19:20	76.1	76.1	78.1	54	58.2	0	1	112	0.00	29.834 
19:25	75.6	75.6	77.9	54	57.8	0	0	---	0.00	29.834 
19:30	75.1	75.1	77.6	54	57.3	0	0	---	0.00	29.835 
19:35	74.6	74.6	74.6	55	57.3	0	0	---	0.00	29.836 
19:40	74.2	74.2	74.2	55	57.0	0	0	---	0.00	29.839 
19:45	73.9	73.9	73.9	56	57.2	0	0	---	0.00	29.840 
19:50	73.7	73.7	73.7	56	57.0	0	0	---	0.00	29.840 
19:55	73.3	73.3	73.3	57	57.1	0	0	---	0.00	29.841 
20:00	73.0	73.0	73.0	57	56.9	0	0	---	0.00	29.842 
20:05	72.5	72.5	72.5	58	56.9	0	0	---	0.00	29.841 
20:10	72.1	72.1	72.1	58	56.5	0	0	---	0.00	29.844 
20:15	71.8	71.8	71.8	59	56.7	0	0	---	0.00	29.845 
20:20	71.3	71.3	71.3	60	56.7	0	0	---	0.00	29.846 
20:25	70.9	70.9	70.9	60	56.3	0	0	---	0.00	29.852 
20:30	70.8	70.8	70.8	59	55.7	0	0	---	0.00	29.854 
20:35	70.8	70.8	70.8	59	55.7	0	0	---	0.00	29.855 
20:40	70.9	70.9	70.9	58	55.4	0	1	112	0.00	29.855 
20:45	71.3	71.3	71.3	56	54.8	0	1	112	0.00	29.853 
20:50	71.6	71.6	71.6	56	55.1	0	1	112	0.00	29.853 
20:55	72.0	72.0	72.0	55	54.9	0	1	112	0.00	29.853 
21:00	71.8	71.8	71.8	54	54.2	0	1	112	0.00	29.854 
21:05	71.8	71.8	71.8	54	54.2	0	0	---	0.00	29.843 
21:10	71.6	71.6	71.6	54	54.1	0	1	112	0.00	29.841 
21:15	71.6	71.6	71.6	54	54.1	0	1	112	0.00	29.844 
21:20	71.5	71.5	71.5	54	54.0	0	0	---	0.00	29.842 
21:25	71.1	71.1	71.1	55	54.1	0	0	---	0.00	29.845 
21:30	70.8	70.8	70.8	55	53.8	0	0	---	0.00	29.840 
21:35	70.4	70.4	70.4	55	53.4	0	1	112	0.00	29.841 
21:40	70.3	70.3	70.3	56	53.8	0	1	112	0.00	29.838 
21:45	70.4	70.4	70.4	56	53.9	0	1	112	0.00	29.841 
21:50	70.4	70.4	70.4	56	53.9	0	1	112	0.00	29.840 
21:55	70.3	70.3	70.3	56	53.8	0	1	112	0.00	29.839 
22:00	70.4	70.4	70.4	55	53.4	0	2	112	0.00	29.837 
22:05	71.1	71.1	71.1	54	53.6	0	2	112	0.00	29.834 
22:10	71.3	71.3	71.3	53	53.3	0	1	112	0.00	29.835 
22:15	71.5	71.5	71.5	53	53.5	1	2	112	0.00	29.836 
22:20	71.8	71.8	71.8	52	53.2	1	2	112	0.00	29.841 
22:25	71.8	71.8	71.8	52	53.2	0	2	112	0.00	29.840 
22:30	71.6	71.6	71.6	52	53.0	0	2	112	0.00	29.842 
22:35	71.5	71.5	71.5	53	53.5	0	1	112	0.00	29.843 
22:40	71.1	71.1	71.1	54	53.6	0	0	---	0.00	29.843 
22:45	70.8	70.8	70.8	54	53.3	0	2	112	0.00	29.842 
22:50	70.4	70.4	70.4	55	53.4	0	1	112	0.00	29.841 
22:55	70.3	70.3	70.3	55	53.4	0	1	112	0.00	29.841 
23:00	70.3	70.3	70.3	55	53.4	0	1	112	0.00	29.842 
23:05	70.1	70.1	70.1	56	53.7	0	0	---	0.00	29.839 
23:10	69.8	69.8	69.8	56	53.4	0	0	---	0.00	29.835 
23:15	69.4	69.4	69.4	57	53.5	0	1	112	0.00	29.829 
23:20	69.1	69.1	69.1	58	53.7	0	1	112	0.00	29.828 
23:25	68.9	68.9	68.9	58	53.5	0	0	---	0.00	29.827 
23:30	68.8	68.8	68.8	58	53.4	0	1	112	0.00	29.828 
23:35	68.6	68.6	68.6	59	53.7	0	1	112	0.00	29.829 
23:40	68.6	68.6	68.6	58	53.2	0	1	112	0.00	29.831 
23:45	68.6	68.6	68.6	58	53.2	0	1	112	0.00	29.830 
23:50	68.8	68.8	68.8	58	53.4	0	1	112	0.00	29.828 
23:55	68.8	68.8	68.8	58	53.4	0	1	112	0.00	29.826 

CoCoRaHS
IN-AL-39
A2 Web Hosting
Creative Commons License
GoDaddy
Look for:

loaded 2017-10-17 18:10:36 • last modified 2010-11-18 10:43:29
Privacy PolicyDisclaimer
• wx.awcolley.com is powered by PmWiki v.2002016 •
• all content (unless otherwise noted) © 2017 A W Colley